createdAt,value
2022-09-01T00:00:29.278Z,16.47
2022-09-01T00:03:03.550Z,17.19
2022-09-01T00:05:33.405Z,17.56
2022-09-01T00:08:01.252Z,17.28
2022-09-01T00:10:29.123Z,16.26
2022-09-01T00:12:57.161Z,15.57
2022-09-01T00:15:25.923Z,16.19
2022-09-01T00:17:54.452Z,17.18
2022-09-01T00:20:22.444Z,17.54
2022-09-01T00:22:53.475Z,17.22
2022-09-01T00:25:24.961Z,16.16
2022-09-01T00:28:00.356Z,15.43
2022-09-01T00:30:28.839Z,16.49
2022-09-01T00:32:56.792Z,17.76
2022-09-01T00:35:25.004Z,17.75
2022-09-01T00:37:52.762Z,16.72
2022-09-01T00:40:20.948Z,15.73
2022-09-01T00:42:49.397Z,15.24
2022-09-01T00:45:23.161Z,15.75
2022-09-01T00:47:51.141Z,16.28
2022-09-01T00:50:21.088Z,16.51
2022-09-01T00:52:55.001Z,16.52
2022-09-01T00:55:29.533Z,16.76
2022-09-01T00:58:01.475Z,17.51
2022-09-01T01:00:33.554Z,17.43
2022-09-01T01:03:01.372Z,16.55
2022-09-01T01:05:39.479Z,16.03
2022-09-01T01:08:12.149Z,17.30
2022-09-01T01:10:42.743Z,18.38
2022-09-01T01:13:21.329Z,17.93
2022-09-01T01:15:49.231Z,16.71
2022-09-01T01:18:22.960Z,16.12
2022-09-01T01:21:22.946Z,17.12
2022-09-01T01:24:06.589Z,18.79
2022-09-01T01:26:34.605Z,19.45
2022-09-01T01:29:03.164Z,18.34
2022-09-01T01:31:32.661Z,17.16
2022-09-01T01:34:00.908Z,16.81
2022-09-01T01:36:36.499Z,18.44
2022-09-01T01:39:12.053Z,19.33
2022-09-01T01:41:48.967Z,18.30
2022-09-01T01:44:22.785Z,17.11
2022-09-01T01:46:55.466Z,16.68
2022-09-01T01:49:27.696Z,17.98
2022-09-01T01:51:58.210Z,18.92
2022-09-01T01:54:31.512Z,18.05
2022-09-01T01:57:04.552Z,16.99
2022-09-01T01:59:34.014Z,16.19
2022-09-01T02:02:03.881Z,16.21
2022-09-01T02:04:34.435Z,18.05
2022-09-01T02:07:02.303Z,19.01
2022-09-01T02:09:30.130Z,18.15
2022-09-01T02:11:58.958Z,17.11
2022-09-01T02:14:26.844Z,16.32
2022-09-01T02:16:56.253Z,16.35
2022-09-01T02:19:24.306Z,18.21
2022-09-01T02:21:56.360Z,19.24
2022-09-01T02:24:24.974Z,18.31
2022-09-01T02:26:52.814Z,17.22
2022-09-01T02:29:25.285Z,16.39
2022-09-01T02:31:54.089Z,16.28
2022-09-01T02:34:24.707Z,17.90
2022-09-01T02:36:57.946Z,18.91
2022-09-01T02:39:32.821Z,17.95
2022-09-01T02:42:27.728Z,16.91
2022-09-01T02:44:57.510Z,15.99
2022-09-01T02:47:29.683Z,16.06
2022-09-01T02:50:01.214Z,17.79
2022-09-01T02:52:34.967Z,18.73
2022-09-01T02:55:03.246Z,17.78
2022-09-01T02:57:34.602Z,16.74
2022-09-01T03:00:21.022Z,15.93
2022-09-01T03:02:52.949Z,16.13
2022-09-01T03:05:29.936Z,18.04
2022-09-01T03:08:03.263Z,18.99
2022-09-01T03:10:41.644Z,17.92
2022-09-01T03:13:20.977Z,16.73
2022-09-01T03:15:50.733Z,16.47
2022-09-01T03:18:19.000Z,18.01
2022-09-01T03:20:49.625Z,18.93
2022-09-01T03:23:19.574Z,17.99
2022-09-01T03:25:48.762Z,16.85
2022-09-01T03:28:16.988Z,16.47
2022-09-01T03:30:52.833Z,17.90
2022-09-01T03:33:24.186Z,18.84
2022-09-01T03:35:53.182Z,17.91
2022-09-01T03:38:22.284Z,16.83
2022-09-01T03:40:54.184Z,16.40
2022-09-01T03:43:25.125Z,17.84
2022-09-01T03:45:55.342Z,18.71
2022-09-01T03:48:26.890Z,17.81
2022-09-01T03:51:01.724Z,16.78
2022-09-01T03:53:37.856Z,16.56
2022-09-01T03:56:07.506Z,18.21
2022-09-01T03:58:35.807Z,18.82
2022-09-01T04:01:05.066Z,17.84
2022-09-01T04:03:41.350Z,16.81
2022-09-01T04:06:10.733Z,16.46
2022-09-01T04:08:39.588Z,17.72
2022-09-01T04:11:24.424Z,18.65
2022-09-01T04:13:53.546Z,18.70
2022-09-01T04:16:48.210Z,17.68
2022-09-01T04:19:20.722Z,16.58
2022-09-01T04:21:52.070Z,16.41
2022-09-01T04:24:24.173Z,17.97
2022-09-01T04:26:53.236Z,18.89
2022-09-01T04:29:28.945Z,18.08
2022-09-01T04:32:05.516Z,17.01
2022-09-01T04:34:38.034Z,16.89
2022-09-01T04:37:18.931Z,18.27
2022-09-01T04:39:56.855Z,18.85
2022-09-01T04:42:29.584Z,17.87
2022-09-01T04:45:00.152Z,16.95
2022-09-01T04:47:42.366Z,16.77
2022-09-01T04:50:15.083Z,18.32
2022-09-01T04:52:45.628Z,18.98
2022-09-01T04:55:18.456Z,18.16
2022-09-01T04:57:49.732Z,17.20
2022-09-01T05:00:24.521Z,16.98
2022-09-01T05:02:55.573Z,18.28
2022-09-01T05:05:24.202Z,18.90
2022-09-01T05:07:54.784Z,18.23
2022-09-01T05:10:30.193Z,17.29
2022-09-01T05:12:58.131Z,17.02
2022-09-01T05:15:26.009Z,18.40
2022-09-01T05:17:54.996Z,19.30
2022-09-01T05:20:22.866Z,19.14
2022-09-01T05:22:50.720Z,18.37
2022-09-01T05:25:18.696Z,17.55
2022-09-01T05:27:49.897Z,16.90
2022-09-01T05:30:18.898Z,16.78
2022-09-01T05:32:49.339Z,18.28
2022-09-01T05:35:17.791Z,19.26
2022-09-01T05:37:46.286Z,19.11
2022-09-01T05:40:16.655Z,18.18
2022-09-01T05:42:45.477Z,17.40
2022-09-01T05:45:14.563Z,17.25
2022-09-01T05:47:42.765Z,18.66
2022-09-01T05:50:14.595Z,19.60
2022-09-01T05:52:46.391Z,19.00
2022-09-01T05:55:19.341Z,18.19
2022-09-01T05:57:48.273Z,17.62
2022-09-01T06:00:35.022Z,17.24
2022-09-01T06:03:05.029Z,17.67
2022-09-01T06:05:36.960Z,19.65
2022-09-01T06:08:07.401Z,20.64
2022-09-01T06:10:40.328Z,20.05
2022-09-01T06:13:10.653Z,19.31
2022-09-01T06:15:43.596Z,18.85
2022-09-01T06:18:13.517Z,18.53
2022-09-01T06:20:49.039Z,18.33
2022-09-01T06:23:21.854Z,18.23
2022-09-01T06:25:50.176Z,18.15
2022-09-01T06:28:24.460Z,18.07
2022-09-01T06:30:56.477Z,18.07
2022-09-01T06:33:28.226Z,18.17
2022-09-01T06:36:04.428Z,18.30
2022-09-01T06:38:32.544Z,18.45
2022-09-01T06:41:13.162Z,18.54
2022-09-01T06:43:41.946Z,18.56
2022-09-01T06:46:10.022Z,18.52
2022-09-01T06:48:42.599Z,18.45
2022-09-01T06:51:15.868Z,18.37
2022-09-01T06:53:56.936Z,18.29
2022-09-01T06:56:33.431Z,18.21
2022-09-01T06:59:06.387Z,18.19
2022-09-01T07:01:39.223Z,18.19
2022-09-01T07:04:12.722Z,18.27
2022-09-01T07:09:46.982Z,18.59
2022-09-01T07:13:04.996Z,18.69
2022-09-01T07:16:31.925Z,18.87
2022-09-01T07:18:26.224Z,19.03
2022-09-01T07:26:48.531Z,19.20
2022-09-01T07:29:31.190Z,19.20
2022-09-01T07:34:56.726Z,19.12
2022-09-01T07:42:59.097Z,19.17
2022-09-01T07:43:25.006Z,19.21
2022-09-01T07:46:00.776Z,19.29
2022-09-01T07:51:51.506Z,19.60
2022-09-01T07:54:22.885Z,19.69
2022-09-01T07:56:55.854Z,19.68
2022-09-01T07:59:24.588Z,19.54
2022-09-01T08:01:52.852Z,19.33
2022-09-01T08:04:23.785Z,19.16
2022-09-01T08:07:00.612Z,19.02
2022-09-01T08:09:38.175Z,18.90
2022-09-01T08:12:13.479Z,18.89
2022-09-01T08:14:41.775Z,19.08
2022-09-01T08:17:32.972Z,19.32
2022-09-01T08:19:58.482Z,19.53
2022-09-01T08:22:28.573Z,19.74
2022-09-01T08:24:59.616Z,19.95
2022-09-01T08:27:27.670Z,20.09
2022-09-01T08:29:57.407Z,20.16
2022-09-01T08:32:28.651Z,20.23
2022-09-01T08:34:59.937Z,20.16
2022-09-01T08:37:31.663Z,19.98
2022-09-01T08:40:09.214Z,19.72
2022-09-01T08:42:59.230Z,19.42
2022-09-01T08:45:45.128Z,19.30
2022-09-01T08:51:40.967Z,19.45
2022-09-01T08:54:34.717Z,19.66
2022-09-01T08:57:20.881Z,19.81
2022-09-01T08:59:53.838Z,19.79
2022-09-01T09:03:07.752Z,19.72
2022-09-01T09:06:05.389Z,19.77
2022-09-01T09:08:58.055Z,19.98
2022-09-01T09:12:04.374Z,19.94
2022-09-01T09:14:51.603Z,19.55
2022-09-01T09:17:25.891Z,19.31
2022-09-01T09:19:54.133Z,19.32
2022-09-01T09:22:37.492Z,19.50
2022-09-01T09:25:19.749Z,19.70
2022-09-01T09:28:00.464Z,19.82
2022-09-01T09:30:31.605Z,19.76
2022-09-01T09:35:57.803Z,19.08
2022-09-01T09:38:29.546Z,18.76
2022-09-01T09:44:30.893Z,18.38
2022-09-01T09:46:59.264Z,18.36
2022-09-01T09:49:34.860Z,18.38
2022-09-01T09:52:05.213Z,18.44
2022-09-01T09:54:35.403Z,18.58
2022-09-01T09:57:08.798Z,18.84
2022-09-01T10:00:04.592Z,19.04
2022-09-01T10:02:43.003Z,19.09
2022-09-01T10:05:48.655Z,19.01
2022-09-01T10:08:34.789Z,18.84
2022-09-01T10:11:08.118Z,18.69
2022-09-01T10:13:37.030Z,18.52
2022-09-01T10:16:28.441Z,18.26
2022-09-01T10:22:08.059Z,17.81
2022-09-01T10:24:44.730Z,17.65
2022-09-01T10:27:38.020Z,17.51
2022-09-01T10:30:23.876Z,18.11
2022-09-01T10:33:37.063Z,20.33
2022-09-01T10:36:24.336Z,21.46
2022-09-01T10:39:04.350Z,20.78
2022-09-01T10:42:00.465Z,20.12
2022-09-01T10:44:36.527Z,19.57
2022-09-01T10:47:30.500Z,19.18
2022-09-01T10:50:10.236Z,18.81
2022-09-01T10:52:44.055Z,18.51
2022-09-01T10:55:44.756Z,18.25
2022-09-01T11:02:22.929Z,21.16
2022-09-01T11:04:46.402Z,21.13
2022-09-01T11:07:44.546Z,20.48
2022-09-01T11:10:52.942Z,19.97
2022-09-01T11:13:49.968Z,19.79
2022-09-01T11:16:49.218Z,19.90
2022-09-01T11:19:46.686Z,20.18
2022-09-01T11:22:38.826Z,20.28
2022-09-01T11:25:44.849Z,20.27
2022-09-01T11:28:17.869Z,20.37
2022-09-01T11:30:58.457Z,20.53
2022-09-01T11:33:56.788Z,20.53
2022-09-01T11:36:48.256Z,20.49
2022-09-01T11:39:19.163Z,20.49
2022-09-01T11:42:19.540Z,20.49
2022-09-01T11:45:07.943Z,20.52
2022-09-01T11:47:48.281Z,20.73
2022-09-01T11:50:23.496Z,20.72
2022-09-01T11:53:05.389Z,20.60
2022-09-01T11:55:38.187Z,20.42
2022-09-01T11:58:17.833Z,20.09
2022-09-01T12:00:52.712Z,19.98
2022-09-01T12:03:30.184Z,20.16
2022-09-01T12:06:30.025Z,20.42
2022-09-01T12:09:05.512Z,20.59
2022-09-01T12:11:37.137Z,20.81
2022-09-01T12:14:11.578Z,20.99
2022-09-01T12:16:42.784Z,20.96
2022-09-01T12:19:29.887Z,20.80
2022-09-01T12:22:15.673Z,20.43
2022-09-01T12:24:53.535Z,19.99
2022-09-01T12:27:25.308Z,19.62
2022-09-01T12:29:53.725Z,19.57
2022-09-01T12:32:22.138Z,19.71
2022-09-01T12:35:09.561Z,19.80
2022-09-01T12:37:39.869Z,19.65
2022-09-01T12:40:31.101Z,19.44
2022-09-01T12:43:00.053Z,19.30
2022-09-01T12:45:48.183Z,19.22
2022-09-01T12:48:31.521Z,19.26
2022-09-01T12:51:19.397Z,19.39
2022-09-01T12:53:58.561Z,19.39
2022-09-01T12:56:33.892Z,19.40
2022-09-01T12:59:36.063Z,19.43
2022-09-01T13:02:33.785Z,19.42
2022-09-01T13:05:32.662Z,19.48
2022-09-01T13:08:12.272Z,19.56
2022-09-01T13:10:59.300Z,19.69
2022-09-01T13:13:29.644Z,19.83
2022-09-01T13:16:13.082Z,19.93
2022-09-01T13:24:10.568Z,19.88
2022-09-01T13:26:38.482Z,19.85
2022-09-01T13:29:07.629Z,19.83
2022-09-01T13:31:36.351Z,19.86
2022-09-01T13:34:22.995Z,19.87
2022-09-01T13:36:52.808Z,19.84
2022-09-01T13:39:22.780Z,19.86
2022-09-01T13:41:54.081Z,19.90
2022-09-01T13:44:25.903Z,19.93
2022-09-01T13:50:04.952Z,19.74
2022-09-01T13:52:33.115Z,19.55
2022-09-01T13:55:02.775Z,19.38
2022-09-01T13:57:35.644Z,19.33
2022-09-01T14:00:13.080Z,19.26
2022-09-01T14:02:49.302Z,19.28
2022-09-01T14:05:27.283Z,19.29
2022-09-01T14:07:56.075Z,19.28
2022-09-01T14:10:26.611Z,19.26
2022-09-01T14:12:54.720Z,19.07
2022-09-01T14:15:27.194Z,18.90
2022-09-01T14:17:58.783Z,18.90
2022-09-01T14:20:37.011Z,18.95
2022-09-01T14:23:07.429Z,18.97
2022-09-01T14:25:38.105Z,18.99
2022-09-01T14:28:06.484Z,19.00
2022-09-01T14:30:34.671Z,18.95
2022-09-01T14:33:04.007Z,18.95
2022-09-01T14:35:33.838Z,18.95
2022-09-01T14:38:05.425Z,18.93
2022-09-01T14:40:39.112Z,18.87
2022-09-01T14:43:10.636Z,18.85
2022-09-01T14:45:38.793Z,18.87
2022-09-01T14:48:12.340Z,18.88
2022-09-01T14:50:46.254Z,18.86
2022-09-01T14:53:15.627Z,18.87
2022-09-01T14:55:50.535Z,18.86
2022-09-01T14:58:21.432Z,18.82
2022-09-01T15:00:50.773Z,18.76
2022-09-01T15:03:23.016Z,18.70
2022-09-01T15:05:51.594Z,18.69
2022-09-01T15:08:32.456Z,18.65
2022-09-01T15:11:14.980Z,18.49
2022-09-01T15:13:45.954Z,18.35
2022-09-01T15:16:26.267Z,18.29
2022-09-01T15:19:04.626Z,18.21
2022-09-01T15:21:34.552Z,18.05
2022-09-01T15:24:07.610Z,17.88
2022-09-01T15:26:52.004Z,17.72
2022-09-01T15:29:35.781Z,17.67
2022-09-01T15:32:08.853Z,17.70
2022-09-01T15:34:49.106Z,17.71
2022-09-01T15:37:17.339Z,17.71
2022-09-01T15:39:45.262Z,17.73
2022-09-01T15:42:13.719Z,17.78
2022-09-01T15:44:42.815Z,17.80
2022-09-01T15:47:13.044Z,17.84
2022-09-01T15:49:44.119Z,17.84
2022-09-01T15:52:12.236Z,17.80
2022-09-01T15:54:40.677Z,17.73
2022-09-01T15:57:09.226Z,17.65
2022-09-01T15:59:47.684Z,17.63
2022-09-01T16:02:18.551Z,17.54
2022-09-01T16:04:48.401Z,17.50
2022-09-01T16:07:20.939Z,17.52
2022-09-01T16:09:49.858Z,17.46
2022-09-01T16:12:21.877Z,17.35
2022-09-01T16:14:56.725Z,17.30
2022-09-01T16:18:07.529Z,17.26
2022-09-01T16:20:58.202Z,17.17
2022-09-01T16:23:42.517Z,17.13
2022-09-01T16:26:13.864Z,17.14
2022-09-01T16:28:50.447Z,17.21
2022-09-01T16:31:29.714Z,17.34
2022-09-01T16:34:18.527Z,17.45
2022-09-01T16:37:07.560Z,17.54
2022-09-01T16:39:49.639Z,17.59
2022-09-01T16:42:57.838Z,17.66
2022-09-01T16:46:08.195Z,17.80
2022-09-01T16:49:15.075Z,18.04
2022-09-01T16:52:22.684Z,18.34
2022-09-01T16:55:28.508Z,18.56
2022-09-01T16:58:22.770Z,18.65
2022-09-01T17:01:19.332Z,18.65
2022-09-01T17:04:16.445Z,18.57
2022-09-01T17:07:03.055Z,18.52
2022-09-01T17:10:07.289Z,18.55
2022-09-01T17:12:52.356Z,18.41
2022-09-01T17:15:42.327Z,18.23
2022-09-01T17:18:50.987Z,18.05
2022-09-01T17:21:45.920Z,17.85
2022-09-01T17:24:56.641Z,17.68
2022-09-01T17:27:57.298Z,17.54
2022-09-01T17:30:26.658Z,17.40
2022-09-01T17:33:29.099Z,17.23
2022-09-01T17:36:35.360Z,16.98
2022-09-01T17:39:35.299Z,16.75
2022-09-01T17:42:25.738Z,16.56
2022-09-01T17:45:28.344Z,16.41
2022-09-01T17:48:39.285Z,16.26
2022-09-01T17:51:41.493Z,16.15
2022-09-01T17:54:49.990Z,16.90
2022-09-01T17:57:50.812Z,19.64
2022-09-01T18:00:29.398Z,20.54
2022-09-01T18:03:29.339Z,19.67
2022-09-01T18:06:56.811Z,18.68
2022-09-01T18:09:31.014Z,17.83
2022-09-01T18:12:10.667Z,17.37
2022-09-01T18:15:16.084Z,16.99
2022-09-01T18:18:21.498Z,16.64
2022-09-01T18:21:04.901Z,16.33
2022-09-01T18:23:43.852Z,16.09
2022-09-01T18:26:33.143Z,15.87
2022-09-01T18:29:08.389Z,15.64
2022-09-01T18:32:13.223Z,16.02
2022-09-01T18:34:55.130Z,18.69
2022-09-01T18:38:15.186Z,19.90
2022-09-01T18:41:18.023Z,18.62
2022-09-01T18:44:22.240Z,17.49
2022-09-01T18:47:13.689Z,16.74
2022-09-01T18:50:27.433Z,16.26
2022-09-01T18:53:23.249Z,15.78
2022-09-01T18:56:15.476Z,15.43
2022-09-01T18:59:19.248Z,15.83
2022-09-01T19:02:24.307Z,18.27
2022-09-01T19:05:21.764Z,19.00
2022-09-01T19:08:06.450Z,17.89
2022-09-01T19:11:23.859Z,17.02
2022-09-01T19:17:34.449Z,15.82
2022-09-01T19:20:15.202Z,15.39
2022-09-01T19:23:02.565Z,15.60
2022-09-01T19:25:41.987Z,17.59
2022-09-01T19:28:42.119Z,18.68
2022-09-01T19:31:36.218Z,17.74
2022-09-01T19:34:25.400Z,16.75
2022-09-01T19:37:02.224Z,16.08
2022-09-01T19:39:49.803Z,15.63
2022-09-01T19:42:57.824Z,15.88
2022-09-01T19:46:24.925Z,17.88
2022-09-01T19:49:51.923Z,18.40
2022-09-01T19:52:56.790Z,17.13
2022-09-01T19:55:59.668Z,16.28
2022-09-01T19:59:00.347Z,15.67
2022-09-01T20:01:42.045Z,15.96
2022-09-01T20:04:58.267Z,17.92
2022-09-01T20:08:30.398Z,18.74
2022-09-01T20:11:10.737Z,17.36
2022-09-01T20:13:51.204Z,16.50
2022-09-01T20:16:50.376Z,15.82
2022-09-01T20:19:45.484Z,15.83
2022-09-01T20:22:39.191Z,17.41
2022-09-01T20:25:18.774Z,17.92
2022-09-01T20:28:06.134Z,16.82
2022-09-01T20:30:45.373Z,15.71
2022-09-01T20:33:28.669Z,15.44
2022-09-01T20:36:14.026Z,16.88
2022-09-01T20:39:50.437Z,17.69
2022-09-01T20:43:03.280Z,16.37
2022-09-01T20:45:32.241Z,15.25
2022-09-01T20:48:14.574Z,15.05
2022-09-01T20:51:32.957Z,16.43
2022-09-01T20:54:23.855Z,17.59
2022-09-01T20:57:35.179Z,17.61
2022-09-01T21:00:21.824Z,16.19
2022-09-01T21:03:35.767Z,15.14
2022-09-01T21:06:37.840Z,15.20
2022-09-01T21:10:00.111Z,17.05
2022-09-01T21:12:36.886Z,17.32
2022-09-01T21:15:52.637Z,16.19
2022-09-01T21:18:44.460Z,15.01
2022-09-01T21:21:42.848Z,14.98
2022-09-01T21:24:10.778Z,16.86
2022-09-01T21:26:40.394Z,17.72
2022-09-01T21:29:50.201Z,16.97
2022-09-01T21:32:18.509Z,15.67
2022-09-01T21:34:48.227Z,15.26
2022-09-01T21:37:18.568Z,16.35
2022-09-01T21:39:46.387Z,17.53
2022-09-01T21:42:14.234Z,17.98
2022-09-01T21:44:44.661Z,17.02
2022-09-01T21:47:13.540Z,15.89
2022-09-01T21:49:41.577Z,15.01
2022-09-01T21:52:10.166Z,14.77
2022-09-01T21:54:38.479Z,16.19
2022-09-01T21:57:06.863Z,17.39
2022-09-01T21:59:34.681Z,17.75
2022-09-01T22:02:03.482Z,16.80
2022-09-01T22:04:33.212Z,15.70
2022-09-01T22:07:01.712Z,14.86
2022-09-01T22:09:30.610Z,14.65
2022-09-01T22:11:58.400Z,16.16
2022-09-01T22:14:27.959Z,17.65
2022-09-01T22:16:55.921Z,18.12
2022-09-01T22:19:23.777Z,16.99
2022-09-01T22:21:52.606Z,15.73
2022-09-01T22:24:20.942Z,14.78
2022-09-01T22:26:48.911Z,14.44
2022-09-01T22:29:18.537Z,15.31
2022-09-01T22:31:46.352Z,16.14
2022-09-01T22:34:14.589Z,16.62
2022-09-01T22:36:49.161Z,16.77
2022-09-01T22:39:18.949Z,16.05
2022-09-01T22:41:47.782Z,15.15
2022-09-01T22:44:16.158Z,14.67
2022-09-01T22:46:44.607Z,15.34
2022-09-01T22:49:13.245Z,16.22
2022-09-01T22:51:43.446Z,17.08
2022-09-01T22:54:12.088Z,17.19
2022-09-01T22:56:41.802Z,16.31
2022-09-01T22:59:14.494Z,15.37
2022-09-01T23:01:47.739Z,14.90
2022-09-01T23:04:17.843Z,15.49
2022-09-01T23:06:51.016Z,15.94
2022-09-01T23:09:21.331Z,16.16
2022-09-01T23:11:50.576Z,16.31
2022-09-01T23:14:18.721Z,16.39
2022-09-01T23:16:47.641Z,16.45
2022-09-01T23:19:21.825Z,16.55
2022-09-01T23:21:51.297Z,16.63
2022-09-01T23:24:20.714Z,16.63
2022-09-01T23:26:49.856Z,15.94
2022-09-01T23:29:17.826Z,15.00
2022-09-01T23:31:45.906Z,14.54
2022-09-01T23:34:14.141Z,15.40
2022-09-01T23:36:42.130Z,16.24
2022-09-01T23:39:10.109Z,16.75
2022-09-01T23:41:38.669Z,16.73
2022-09-01T23:44:09.724Z,15.73
2022-09-01T23:46:43.779Z,14.71
2022-09-01T23:49:14.728Z,14.21
2022-09-01T23:51:44.089Z,14.84
2022-09-01T23:54:15.232Z,15.45
2022-09-01T23:56:43.076Z,15.85
2022-09-01T23:59:10.963Z,16.20
